首页
METAR-TAF:

METAR-TAF

机场 :

Lumberton Municipal Airport

兰伯顿, 北卡罗来纳州, 美国

纬度: 34-36-26N, 经度: 079-03-36W, 海拔: 38米

METAR: 丢失

时间: 05:53 (09:53 UTC)

预报

该预报发布于4小时和33分钟前的05:20 UTC
预报有效从26日的 06点(UTC)到 27日的 06点(UTC)
风速6节,风向
能見度: 10公里
散云层高于3000英尺
从 26日的 1200点(UTC)
风速5节,风向西南
能見度: 10公里
少量云层高于5000英尺
从 26日的 1500点(UTC)
风速7节,风向西转西北
能見度: 10公里
少量云层高于6000英尺
从 26日的 2100点(UTC)
风速9节,风向西转西北
能見度: 10公里
少量云层高于25000英尺
从 27日的 0200点(UTC)
风速3节,风向多变
能見度: 10公里
少量云层高于8000英尺

TAF: KLBT 260520Z 2606/2706 17006KT P6SM SCT030 FM261200 23005KT P6SM FEW050 FM261500 29007KT P6SM FEW060 FM262100 29009KT P6SM FEW250 FM270200 VRB03KT P6SM FEW080 AMD NOT SKED

超过4000个机场的气象观测和天气预报(METAR&TAF报告)。

可查询的气象台以黄色和红色小点在地图上表示。

将鼠标移到小点上方,可查看气象台名称。

然后点击查看天气观测和预报。

如需切换地图:点击带黑十字的绿色按钮放大地图;点击带横线的绿色按钮缩小地图;或者点击绿色箭头查看邻近地区的地图。


METAR-TAF: